Time;durP1;ratioP1;P1;durP2;ratioP2;P2;SDS_P1;SDS_P2;PMS_P1;PMS_P2;Temp;Humidity;BMP_temperature;BMP_pressure;BME280_temperature;BME280_humidity;BME280_pressure;Samples;Min_cycle;Max_cycle;Signal;HPM_P1;HPM_P2
2022/01/24 00:01:26;;;;;;;13.93;4.60;;;;;;;0.95;53.38;99516.13;4487638;32;20114;-81
2022/01/24 00:03:57;;;;;;;15.95;4.75;;;;;;;1.48;51.44;99521.31;4487201;31;20160;-81
2022/01/24 00:06:27;;;;;;;13.15;4.07;;;;;;;-2.12;63.42;99524.50;4487608;32;20102;-81
2022/01/24 00:08:56;;;;;;;13.40;4.97;;;;;;;-1.74;64.28;99527.31;4487706;32;20075;-81
2022/01/24 00:11:36;;;;;;;12.50;4.30;;;;;;;-0.39;58.74;99537.75;4486849;32;20096;-81
2022/01/24 00:27:23;;;;;;;16.23;4.90;;;;;;;2.14;45.03;99548.69;4487544;32;20374;-81
2022/01/24 00:29:50;;;;;;;;;;;;;;;2.21;45.40;99546.25;4487662;32;20088;-81
2022/01/24 00:32:17;;;;;;;14.60;4.70;;;;;;;2.08;46.20;99548.59;4486961;32;19975;-81
2022/01/24 00:34:44;;;;;;;;;;;;;;;2.21;46.86;99553.03;4487562;31;20114;-81
2022/01/24 00:37:13;;;;;;;22.40;6.68;;;;;;;2.42;46.33;99547.38;4487474;32;20389;-81
2022/01/24 00:39:40;;;;;;;44.50;15.35;;;;;;;2.24;46.89;99553.09;4486906;32;20458;-81
2022/01/24 00:45:13;;;;;;;22.25;8.15;;;;;;;2.65;46.40;99555.31;4487057;32;19983;-81
2022/01/24 00:55:41;;;;;;;22.50;9.05;;;;;;;4.12;42.97;99558.53;4487108;32;20138;-81
2022/01/24 00:58:08;;;;;;;26.00;10.77;;;;;;;3.51;43.63;99562.25;4487147;32;20215;-81
2022/01/24 01:00:35;;;;;;;;;;;;;;;2.72;45.83;99559.69;4486935;32;20383;-81
2022/01/24 01:03:02;;;;;;;29.10;12.05;;;;;;;2.18;46.34;99560.63;4487274;32;19995;-81
2022/01/24 01:19:07;;;;;;;22.70;8.52;;;;;;;2.35;44.21;99565.97;4486959;32;20027;-81
2022/01/24 01:21:34;;;;;;;;;;;;;;;0.81;45.93;99559.91;4486663;32;20383;-81
2022/01/24 01:24:01;;;;;;;16.70;6.28;;;;;;;1.39;44.68;99567.81;4486772;31;20024;-81
2022/01/24 01:26:52;;;;;;;14.02;5.18;;;;;;;1.87;42.62;99572.88;4486822;32;20148;-81
2022/01/24 01:29:26;;;;;;;18.08;5.30;;;;;;;1.51;42.81;99573.13;4486776;32;20098;-81
2022/01/24 01:40:25;;;;;;;17.77;5.68;;;;;;;0.70;46.12;99569.00;4486622;32;20144;-81
2022/01/24 01:56:29;;;;;;;20.85;7.55;;;;;;;0.40;48.51;99575.97;4485940;32;20110;-81
2022/01/24 01:58:59;;;;;;;;;;;;;;;0.29;48.73;99573.19;4486607;32;20114;-81
2022/01/24 02:01:26;;;;;;;22.25;7.75;;;;;;;0.33;48.21;99574.97;4486152;32;20009;-81
2022/01/24 02:03:54;;;;;;;19.25;6.62;;;;;;;0.33;47.83;99569.06;4485653;31;20525;-81
2022/01/24 02:06:22;;;;;;;22.17;7.00;;;;;;;0.68;47.34;99572.34;4486110;32;20149;-81
2022/01/24 02:08:59;;;;;;;19.00;7.07;;;;;;;0.78;47.28;99581.87;4486141;32;20544;-81
2022/01/24 02:11:26;;;;;;;17.62;5.65;;;;;;;1.66;44.96;99575.06;4485915;32;20093;-81
2022/01/24 02:13:54;;;;;;;20.90;7.12;;;;;;;2.42;42.97;99560.13;4485711;31;20085;-81
2022/01/24 02:16:47;;;;;;;27.48;11.43;;;;;;;2.18;43.77;99564.03;4485726;32;20085;-81
2022/01/24 02:22:05;;;;;;;30.67;11.50;;;;;;;0.44;48.25;99572.69;4488256;32;20159;-81
2022/01/24 02:24:41;;;;;;;22.62;7.40;;;;;;;0.19;49.14;99577.19;4487921;31;20076;-81
2022/01/24 02:27:10;;;;;;;17.23;6.03;;;;;;;0.90;46.18;99569.41;4488388;32;20119;-81
2022/01/24 02:29:53;;;;;;;16.62;6.10;;;;;;;0.81;44.94;99570.06;4488406;32;20450;-81
2022/01/24 02:32:23;;;;;;;17.23;5.32;;;;;;;0.21;45.12;99569.59;4488260;32;20106;-81
2022/01/24 02:34:50;;;;;;;17.10;5.90;;;;;;;0.23;43.95;99571.38;4473789;32;20109;-81
2022/01/24 02:37:19;;;;;;;22.10;6.78;;;;;;;-0.02;43.92;99580.09;4487854;32;20359;-81
2022/01/24 02:53:20;;;;;;;20.25;6.40;;;;;;;-0.26;44.84;99581.19;4487649;32;20153;-81
2022/01/24 02:55:47;;;;;;;18.10;5.65;;;;;;;0.08;43.73;99578.62;4488048;32;20101;-81
2022/01/24 02:58:15;;;;;;;23.17;6.75;;;;;;;-0.03;44.79;99573.28;4487774;32;20151;-81
2022/01/24 03:00:49;;;;;;;24.25;7.82;;;;;;;-0.47;45.45;99579.81;4487856;32;20440;-81
2022/01/24 03:03:20;;;;;;;19.95;7.35;;;;;;;0.02;44.38;99562.41;4488030;31;20076;-81
2022/01/24 03:05:47;;;;;;;23.02;8.32;;;;;;;-0.27;45.41;99571.84;4487661;32;20088;-81
2022/01/24 03:08:14;;;;;;;21.92;7.90;;;;;;;0.41;43.95;99576.00;4488004;32;20472;-81
2022/01/24 03:10:45;;;;;;;26.62;8.63;;;;;;;0.52;43.84;99576.22;4487637;31;20373;-81
2022/01/24 03:15:41;;;;;;;26.12;8.30;;;;;;;0.50;44.82;99582.97;4473769;32;20427;-80
2022/01/24 03:18:10;;;;;;;;;;;;;;;0.02;46.27;99585.25;4488166;32;20152;-81
2022/01/24 03:20:38;;;;;;;27.42;9.55;;;;;;;-0.05;47.01;99582.56;4473690;32;19998;-81
2022/01/24 03:23:06;;;;;;;28.80;11.05;;;;;;;-0.52;46.81;99586.47;4487842;32;20088;-81
2022/01/24 03:25:36;;;;;;;30.80;10.98;;;;;;;-0.70;46.28;99589.34;4487742;31;20085;-81
2022/01/24 03:28:06;;;;;;;34.80;13.45;;;;;;;-0.98;45.85;99589.41;4487545;32;20186;-81
2022/01/24 03:30:34;;;;;;;24.48;9.50;;;;;;;-0.41;44.47;99595.19;4487768;32;20151;-81
2022/01/24 03:33:05;;;;;;;19.27;7.12;;;;;;;-1.28;45.27;99590.25;4487901;32;20113;-81
2022/01/24 03:35:32;;;;;;;19.15;6.45;;;;;;;-1.35;45.66;99590.06;4487649;31;20113;-81
2022/01/24 03:38:00;;;;;;;13.70;5.82;;;;;;;-0.96;44.63;99586.12;4487784;32;20103;-81
2022/01/24 03:40:27;;;;;;;16.45;6.03;;;;;;;-0.83;44.08;99594.06;4487405;32;20140;-81
2022/01/24 03:42:54;;;;;;;22.55;6.57;;;;;;;-1.18;44.93;99594.78;4487810;32;20099;-81
2022/01/24 03:45:37;;;;;;;16.98;6.10;;;;;;;-0.83;43.50;99599.13;4487640;31;20136;-81
2022/01/24 03:48:23;;;;;;;17.30;5.50;;;;;;;-0.53;42.70;99599.97;4487438;32;20543;-81
2022/01/24 03:50:50;;;;;;;17.08;5.53;;;;;;;-1.11;44.55;99600.88;4487709;32;20140;-81
2022/01/24 03:53:17;;;;;;;16.27;6.22;;;;;;;-0.98;44.50;99597.87;4487638;31;20085;-81
2022/01/24 03:55:44;;;;;;;19.58;7.25;;;;;;;-1.30;45.99;99596.09;4487231;32;20087;-81
2022/01/24 03:58:11;;;;;;;21.85;7.07;;;;;;;-1.43;47.20;99594.03;4487651;32;20133;-81
2022/01/24 04:00:38;;;;;;;21.27;7.43;;;;;;;-0.44;46.09;99597.63;4473444;32;20122;-81
2022/01/24 04:03:05;;;;;;;25.62;9.20;;;;;;;-0.72;46.72;99595.22;4487290;32;20092;-81
2022/01/24 04:05:33;;;;;;;22.95;9.23;;;;;;;-1.33;48.45;99594.34;4487402;31;20099;-81
2022/01/24 04:07:59;;;;;;;30.08;11.15;;;;;;;-0.24;44.60;99604.91;4487575;32;20088;-80
2022/01/24 04:10:28;;;;;;;28.50;10.75;;;;;;;-0.36;45.26;99615.59;4487041;32;20110;-80
2022/01/24 04:12:55;;;;;;;19.48;6.50;;;;;;;-0.69;46.10;99616.41;4487616;32;20080;-81
2022/01/24 04:15:44;;;;;;;15.65;5.80;;;;;;;-0.61;43.54;99617.50;4487101;31;20080;-80
2022/01/24 04:24:08;;;;;;;22.95;7.20;;;;;;;-2.79;47.03;99603.13;4422659;32;20086;-81
2022/01/24 04:26:36;;;;;;;20.77;7.05;;;;;;;-1.31;44.92;99607.91;4423242;32;20182;-81
2022/01/24 04:29:04;;;;;;;25.67;7.60;;;;;;;-0.90;44.23;99611.63;4455827;32;20101;-80
2022/01/24 04:31:31;;;;;;;17.83;6.47;;;;;;;-1.59;46.12;99621.44;4486946;32;20089;-80
2022/01/24 04:33:58;;;;;;;17.90;5.68;;;;;;;-1.52;44.79;99622.44;4487328;31;20374;-81
2022/01/24 04:36:27;;;;;;;19.10;5.53;;;;;;;-1.99;46.19;99623.50;4487035;32;20106;-81
2022/01/24 04:38:57;;;;;;;17.25;5.43;;;;;;;-2.12;46.67;99633.22;4487322;32;20152;-81
2022/01/24 04:41:28;;;;;;;16.35;5.35;;;;;;;-2.31;46.13;99625.84;4486621;32;20096;-81
2022/01/24 04:44:06;;;;;;;18.05;5.62;;;;;;;-1.84;45.07;99631.56;4486970;31;20106;-81
2022/01/24 04:54:42;;;;;;;14.20;5.30;;;;;;;-2.43;49.14;99635.53;4473271;32;20096;-81
2022/01/24 04:57:19;;;;;;;18.40;6.00;;;;;;;-1.81;48.36;99631.66;4487240;32;20088;-81
2022/01/24 04:59:48;;;;;;;22.23;6.37;;;;;;;-2.43;49.80;99643.13;4487230;32;20152;-81
2022/01/24 05:02:16;;;;;;;20.17;6.12;;;;;;;-3.81;55.05;99647.28;4486932;32;20085;-81
2022/01/24 05:04:44;;;;;;;19.48;6.20;;;;;;;-2.52;51.90;99636.09;4486720;31;20103;-81
2022/01/24 05:07:11;;;;;;;19.52;7.75;;;;;;;-1.50;48.97;99631.81;4487062;32;20107;-81
2022/01/24 05:09:47;;;;;;;23.27;7.47;;;;;;;-1.15;47.63;99639.62;4486980;32;20704;-81
2022/01/24 05:23:30;;;;;;;18.77;6.37;;;;;;;-1.68;44.89;99654.03;4486863;32;20104;-80
2022/01/24 05:25:59;;;;;;;18.08;6.18;;;;;;;-1.31;44.10;99652.63;4486478;32;20085;-80
2022/01/24 05:28:27;;;;;;;20.55;6.95;;;;;;;-1.49;45.27;99658.87;4472619;32;20068;-81
2022/01/24 05:30:54;;;;;;;28.25;9.95;;;;;;;-1.30;44.49;99660.25;4486490;32;20516;-81
2022/01/24 05:33:21;;;;;;;27.02;9.43;;;;;;;-1.92;45.55;99656.63;4486318;31;20107;-81
2022/01/24 05:35:48;;;;;;;20.45;7.68;;;;;;;-2.05;46.13;99662.09;4486481;32;20080;-81
2022/01/24 05:38:16;;;;;;;33.78;12.63;;;;;;;-2.22;47.88;99663.22;4486576;32;20084;-81
2022/01/24 05:40:44;;;;;;;34.50;12.05;;;;;;;-3.15;50.90;99660.75;4485949;32;20096;-81
2022/01/24 05:43:11;;;;;;;103.97;30.73;;;;;;;-2.42;49.20;99662.53;4486537;32;20149;-81
2022/01/24 05:45:38;;;;;;;31.25;12.05;;;;;;;-1.28;45.76;99670.44;4486375;31;20407;-81
2022/01/24 05:48:05;;;;;;;17.10;6.20;;;;;;;-1.03;44.31;99677.12;4486053;32;20127;-81
2022/01/24 05:50:34;;;;;;;;;;;;;;;-1.19;43.88;99683.38;4486584;32;20164;-80
2022/01/24 05:53:01;;;;;;;20.85;7.93;;;;;;;-1.50;43.39;99681.56;4486567;32;20672;-80
2022/01/24 05:55:30;;;;;;;19.33;5.68;;;;;;;-1.76;43.87;99681.63;4487946;31;20190;-80
2022/01/24 05:57:57;;;;;;;16.55;5.25;;;;;;;-2.06;43.62;99673.03;4488534;32;20426;-81
2022/01/24 06:00:24;;;;;;;20.70;6.03;;;;;;;-1.69;42.05;99676.78;4488062;32;20187;-80
2022/01/24 06:02:51;;;;;;;17.17;5.43;;;;;;;-2.73;43.37;99684.19;4488518;32;20140;-80
2022/01/24 06:05:18;;;;;;;14.73;5.03;;;;;;;-2.86;43.69;99682.03;4488333;31;20084;-80
2022/01/24 06:07:49;;;;;;;16.65;5.12;;;;;;;-2.04;41.91;99692.50;4488097;32;20507;-80
2022/01/24 06:10:16;;;;;;;16.48;5.60;;;;;;;-2.79;43.16;99688.16;4488244;32;20160;-81
2022/01/24 06:12:44;;;;;;;16.80;5.90;;;;;;;-3.12;44.17;99686.09;4488433;32;20415;-81
2022/01/24 06:15:12;;;;;;;25.30;9.15;;;;;;;-2.52;43.42;99685.78;4487851;31;20088;-81
2022/01/24 06:17:39;;;;;;;20.88;6.95;;;;;;;-1.91;42.32;99690.41;4488373;32;20565;-81
2022/01/24 06:20:07;;;;;;;23.95;7.85;;;;;;;-1.86;42.13;99696.47;4488182;32;20168;-80
2022/01/24 06:22:38;;;;;;;21.37;7.32;;;;;;;-2.03;42.10;99700.94;4487986;32;20163;-81
2022/01/24 06:25:07;;;;;;;17.87;6.18;;;;;;;-2.48;43.03;99706.13;4488198;31;20084;-81
2022/01/24 06:27:42;;;;;;;22.30;7.62;;;;;;;-2.05;43.05;99711.00;4488361;32;20159;-81
2022/01/24 06:30:10;;;;;;;22.77;8.00;;;;;;;-2.72;45.34;99702.75;4487845;32;20167;-80
2022/01/24 06:32:38;;;;;;;29.52;9.80;;;;;;;-1.46;43.55;99709.59;4488181;32;20152;-80
2022/01/24 06:35:07;;;;;;;18.95;6.50;;;;;;;-1.78;43.49;99711.09;4488041;31;20092;-80
2022/01/24 06:37:34;;;;;;;14.65;4.85;;;;;;;-1.34;42.17;99723.44;4487879;32;20084;-80
2022/01/24 06:40:03;;;;;;;14.57;5.10;;;;;;;-1.66;42.46;99718.22;4488078;32;20482;-80
2022/01/24 06:42:30;;;;;;;17.75;5.87;;;;;;;-2.25;43.99;99724.63;4487999;32;20119;-80
2022/01/24 06:44:59;;;;;;;17.52;5.65;;;;;;;-1.95;43.85;99722.31;4488093;31;20101;-80
2022/01/24 06:47:26;;;;;;;18.85;5.78;;;;;;;-2.43;45.28;99722.34;4488243;32;20164;-81
2022/01/24 06:49:53;;;;;;;18.23;6.03;;;;;;;-2.24;45.20;99733.94;4487819;32;20144;-80
2022/01/24 06:52:22;;;;;;;14.40;4.82;;;;;;;-1.34;43.05;99728.50;4488057;32;20104;-80
2022/01/24 06:54:49;;;;;;;16.15;6.28;;;;;;;-2.18;44.06;99744.28;4487880;31;20797;-81
2022/01/24 06:57:17;;;;;;;15.55;5.68;;;;;;;-1.00;41.11;99754.06;4487701;32;20505;-80
2022/01/24 06:59:45;;;;;;;20.95;6.43;;;;;;;-0.78;40.78;99752.16;4488016;32;20751;-80
2022/01/24 07:02:13;;;;;;;19.73;6.30;;;;;;;-1.13;42.28;99766.31;4488111;32;20119;-80
2022/01/24 07:04:41;;;;;;;17.52;7.07;;;;;;;-1.00;43.30;99765.88;4487747;31;20118;-81
2022/01/24 07:07:10;;;;;;;20.33;6.87;;;;;;;-1.01;44.64;99769.22;4488094;32;20080;-80
2022/01/24 07:09:38;;;;;;;14.85;5.43;;;;;;;-1.11;45.12;99772.28;4488106;32;20132;-81
2022/01/24 07:12:06;;;;;;;16.45;5.80;;;;;;;-0.79;46.75;99771.59;4487543;32;20104;-81
2022/01/24 07:14:34;;;;;;;16.35;5.25;;;;;;;0.80;42.01;99779.25;4487903;31;20114;-79
2022/01/24 07:17:12;;;;;;;13.48;4.28;;;;;;;1.33;45.55;99783.84;4488345;32;20084;-79
2022/01/24 07:19:39;;;;;;;13.40;5.15;;;;;;;2.23;39.51;99781.44;4489422;32;20153;-79
2022/01/24 07:22:06;;;;;;;;;;;;;;;2.60;42.84;99785.47;4490462;32;20140;-79
2022/01/24 07:24:34;;;;;;;11.20;4.15;;;;;;;2.92;40.29;99794.50;4492334;31;19974;-79
2022/01/24 07:27:02;;;;;;;14.45;5.00;;;;;;;4.04;36.93;99797.69;4489576;32;20438;-79
2022/01/24 07:29:29;;;;;;;18.48;6.20;;;;;;;4.70;35.09;99800.94;4489800;32;20113;-79
2022/01/24 07:31:56;;;;;;;15.95;5.70;;;;;;;5.11;33.83;99793.59;4490233;32;20611;-79
2022/01/24 07:34:23;;;;;;;16.27;5.50;;;;;;;5.29;32.92;99796.25;4491574;31;20108;-79
2022/01/24 07:36:51;;;;;;;;;;;;;;;6.18;31.43;99795.00;4491515;32;20101;-79
2022/01/24 07:39:18;;;;;;;;;;;;;;;6.37;30.95;99793.31;4490812;32;19980;-79
2022/01/24 07:41:47;;;;;;;17.98;5.60;;;;;;;7.34;28.46;99799.34;4490283;32;19948;-80
2022/01/24 07:44:20;;;;;;;28.50;9.32;;;;;;;6.66;30.11;99801.06;4489173;31;20088;-79
2022/01/24 07:46:48;;;;;;;26.45;8.68;;;;;;;7.39;29.76;99811.31;4487899;32;20111;-80
2022/01/24 07:49:15;;;;;;;33.15;14.65;;;;;;;8.11;29.05;99813.66;4488355;32;20092;-79
2022/01/24 07:51:42;;;;;;;37.55;18.08;;;;;;;8.36;28.66;99815.25;4488287;32;20100;-78
2022/01/24 07:54:09;;;;;;;30.88;14.02;;;;;;;9.18;28.03;99818.94;4487867;31;20164;-80
2022/01/24 07:56:37;;;;;;;30.85;13.90;;;;;;;9.80;27.08;99814.88;4490166;32;20081;-80
2022/01/24 07:59:07;;;;;;;29.35;12.73;;;;;;;10.43;25.98;99822.72;4491854;32;20152;-79
2022/01/24 08:01:41;;;;;;;48.83;17.02;;;;;;;10.88;25.88;99827.22;4487305;32;20163;-78
2022/01/24 08:04:08;;;;;;;29.95;13.02;;;;;;;11.37;24.90;99821.22;4488968;32;20061;-81
2022/01/24 08:06:38;;;;;;;22.95;8.23;;;;;;;12.25;24.55;99824.72;4488825;31;20049;-81
2022/01/24 08:09:09;;;;;;;14.77;6.05;;;;;;;12.24;23.00;99833.34;4491514;32;20132;-81
2022/01/24 08:11:36;;;;;;;15.18;6.82;;;;;;;12.55;23.08;99828.38;4490471;32;20106;-79
2022/01/24 08:14:03;;;;;;;15.73;7.30;;;;;;;13.02;23.03;99834.16;4490188;32;20167;-79
2022/01/24 08:16:33;;;;;;;15.73;6.37;;;;;;;13.18;22.00;99835.47;4486248;31;20439;-79
2022/01/24 08:19:00;;;;;;;17.45;5.75;;;;;;;12.94;22.33;99847.28;4487503;32;20096;-84
2022/01/24 08:21:27;;;;;;;14.73;5.78;;;;;;;13.68;21.49;99848.91;4487076;32;20109;-79
2022/01/24 08:23:56;;;;;;;14.98;5.70;;;;;;;14.11;21.25;99842.53;4487604;32;20093;-81
2022/01/24 08:26:23;;;;;;;15.13;5.90;;;;;;;14.37;21.63;99842.66;4487204;32;20080;-81
2022/01/24 08:28:50;;;;;;;17.27;7.82;;;;;;;14.90;21.33;99853.19;4487092;32;20145;-81
2022/01/24 08:31:17;;;;;;;17.23;7.07;;;;;;;15.15;20.62;99855.84;4487300;32;20155;-82
2022/01/24 08:33:44;;;;;;;19.05;7.12;;;;;;;13.93;20.33;99856.91;4487524;32;20537;-81
2022/01/24 08:36:14;;;;;;;14.80;6.50;;;;;;;14.64;20.86;99858.31;4486872;31;20107;-81
2022/01/24 08:38:41;;;;;;;14.32;6.12;;;;;;;14.71;21.24;99859.84;4487319;32;20107;-81
2022/01/24 08:41:16;;;;;;;15.40;6.60;;;;;;;14.57;20.71;99862.88;4485587;32;20129;-81
2022/01/24 08:46:17;;;;;;;16.80;8.00;;;;;;;14.28;20.58;99858.50;4485527;31;20356;-81
2022/01/24 08:48:46;;;;;;;17.42;7.53;;;;;;;10.58;24.38;99856.91;4485496;32;20145;-81
2022/01/24 08:51:16;;;;;;;10.80;4.45;;;;;;;8.93;25.90;99858.63;4485526;32;20629;-81
2022/01/24 08:54:04;;;;;;;20.30;9.02;;;;;;;7.27;28.28;99860.12;4486084;32;20107;-81
2022/01/24 08:56:32;;;;;;;18.73;8.35;;;;;;;8.19;28.33;99865.91;4486944;31;20199;-81
2022/01/24 08:58:59;;;;;;;15.82;6.65;;;;;;;7.79;28.43;99868.59;4488365;32;20144;-81
2022/01/24 09:01:26;;;;;;;18.48;7.30;;;;;;;6.02;30.17;99863.28;4488573;32;20092;-81
2022/01/24 09:03:56;;;;;;;17.33;6.22;;;;;;;8.32;27.71;99877.84;4488345;32;20430;-81
2022/01/24 09:06:24;;;;;;;14.70;5.62;;;;;;;6.55;30.12;99870.31;4488139;31;20127;-80
2022/01/24 09:08:55;;;;;;;10.60;3.78;;;;;;;5.35;32.44;99879.94;4489004;32;20088;-80
2022/01/24 09:11:24;;;;;;;15.40;4.93;;;;;;;4.22;33.01;99879.66;4487884;32;20464;-80
2022/01/24 09:13:51;;;;;;;12.18;4.30;;;;;;;3.51;35.76;99879.59;4476480;32;20163;-80
2022/01/24 09:16:18;;;;;;;12.45;4.50;;;;;;;4.43;33.56;99881.63;4489472;32;20100;-80
2022/01/24 09:18:45;;;;;;;15.60;4.90;;;;;;;4.88;34.09;99890.59;4488952;32;20131;-80
2022/01/24 09:21:14;;;;;;;15.95;6.07;;;;;;;3.68;35.50;99882.38;4489979;32;20061;-80
2022/01/24 09:23:41;;;;;;;16.85;4.37;;;;;;;4.72;33.72;99892.16;4489453;32;20140;-80
2022/01/24 09:26:11;;;;;;;6.93;2.62;;;;;;;5.57;32.59;99891.16;4489296;32;20128;-80
2022/01/24 09:28:38;;;;;;;15.95;6.35;;;;;;;5.44;32.17;99888.53;4490483;32;20096;-80
2022/01/24 09:31:06;;;;;;;12.25;3.72;;;;;;;6.21;30.82;99887.28;4493688;32;20113;-80
2022/01/24 09:33:33;;;;;;;11.30;4.25;;;;;;;6.05;31.37;99885.50;4495128;32;20077;-80
2022/01/24 09:36:01;;;;;;;13.27;4.30;;;;;;;6.51;31.46;99889.09;4495926;31;20102;-80
2022/01/24 09:38:31;;;;;;;15.00;4.90;;;;;;;5.78;32.29;99887.03;4498006;32;20092;-80
2022/01/24 09:41:10;;;;;;;12.77;4.15;;;;;;;6.55;31.20;99885.69;4498019;32;20069;-80
2022/01/24 09:43:37;;;;;;;15.20;6.07;;;;;;;7.15;30.01;99893.50;4495703;32;20101;-80
2022/01/24 09:46:04;;;;;;;13.23;4.97;;;;;;;7.27;30.44;99901.19;4490651;31;20061;-80
2022/01/24 09:48:32;;;;;;;11.00;4.68;;;;;;;6.37;31.34;99893.31;4491787;32;20222;-80
2022/01/24 09:50:59;;;;;;;14.20;5.20;;;;;;;5.88;32.04;99898.19;4489645;32;20084;-77
2022/01/24 09:53:29;;;;;;;12.37;4.28;;;;;;;5.69;32.85;99902.34;4482042;32;20056;-81
2022/01/24 09:55:59;;;;;;;9.77;3.72;;;;;;;6.87;31.33;99900.28;4500591;31;20073;-81
2022/01/24 09:58:26;;;;;;;11.77;4.18;;;;;;;5.13;33.16;99889.13;4481502;32;20164;-79
2022/01/24 10:01:06;;;;;;;13.98;5.43;;;;;;;5.82;31.90;99895.59;4498829;32;20167;-81
2022/01/24 10:03:34;;;;;;;10.05;3.55;;;;;;;6.16;31.56;99899.22;4501194;32;20076;-81
2022/01/24 10:06:10;;;;;;;15.07;6.00;;;;;;;6.75;31.03;99896.00;4500888;31;20075;-80
2022/01/24 10:08:37;;;;;;;8.73;3.40;;;;;;;6.78;31.37;99892.56;4498154;32;20116;-80
2022/01/24 10:11:06;;;;;;;14.73;4.93;;;;;;;5.96;32.18;99894.00;4496958;31;20096;-81
2022/01/24 10:16:43;;;;;;;24.25;8.32;;;;;;;5.86;32.66;99884.53;4496251;31;20079;-81
2022/01/24 10:19:20;;;;;;;23.27;4.93;;;;;;;6.75;31.66;99887.44;4497591;32;20061;-81
2022/01/24 10:22:05;;;;;;;74.72;24.25;;;;;;;6.22;32.12;99881.31;4497208;32;20068;-80
2022/01/24 10:24:46;;;;;;;21.60;7.97;;;;;;;6.78;30.38;99883.16;4498072;32;20096;-81
2022/01/24 10:27:28;;;;;;;34.17;14.20;;;;;;;8.02;29.14;99878.81;4492825;31;20156;-80
2022/01/24 10:30:02;;;;;;;26.15;9.73;;;;;;;7.84;28.53;99881.41;4495273;32;20068;-81
2022/01/24 10:32:38;;;;;;;12.20;3.95;;;;;;;6.87;30.09;99875.50;4493652;32;20167;-80
2022/01/24 10:35:37;;;;;;;22.45;8.18;;;;;;;6.41;31.30;99873.69;4492784;31;20093;-80
2022/01/24 10:43:37;;;;;;;32.17;12.75;;;;;;;7.96;28.91;99881.38;4492281;32;20160;-80
2022/01/24 10:46:05;;;;;;;14.95;5.03;;;;;;;8.31;28.67;99877.84;4492796;31;20101;-81
2022/01/24 10:48:34;;;;;;;14.55;5.85;;;;;;;7.23;29.98;99881.50;4492647;32;20152;-80
2022/01/24 10:51:21;;;;;;;16.48;5.68;;;;;;;7.31;29.86;99869.50;4478423;32;20245;-80
2022/01/24 10:53:51;;;;;;;14.38;5.62;;;;;;;8.09;28.98;99874.50;4492948;32;20120;-81
2022/01/24 10:56:37;;;;;;;15.07;4.97;;;;;;;8.84;27.48;99876.72;4491237;31;20077;-80
2022/01/24 10:59:10;;;;;;;55.63;19.40;;;;;;;8.50;28.86;99874.31;4491199;32;20140;-81
2022/01/24 11:01:38;;;;;;;14.15;5.53;;;;;;;8.17;28.83;99865.03;4491631;32;20099;-81
2022/01/24 11:04:09;;;;;;;16.02;5.87;;;;;;;7.58;29.64;99862.66;4493119;32;20096;-80
2022/01/24 11:06:39;;;;;;;13.88;5.28;;;;;;;6.75;31.37;99867.78;4493126;31;20065;-80
2022/01/24 11:09:25;;;;;;;15.18;5.57;;;;;;;7.54;29.76;99865.19;4494703;32;20264;-79
2022/01/24 11:11:58;;;;;;;12.80;5.70;;;;;;;8.94;27.58;99868.94;4493673;32;20143;-80
2022/01/24 11:14:26;;;;;;;12.45;4.68;;;;;;;8.16;28.63;99865.03;4493349;32;20100;-80
2022/01/24 11:16:55;;;;;;;14.07;5.50;;;;;;;9.02;26.88;99871.44;4492894;32;20132;-80
2022/01/24 11:19:43;;;;;;;13.55;5.78;;;;;;;6.37;31.63;99863.41;4490820;31;20103;-79
2022/01/24 11:22:21;;;;;;;13.95;5.37;;;;;;;6.82;31.75;99858.41;4487344;32;20135;-79
2022/01/24 11:24:58;;;;;;;13.18;4.85;;;;;;;5.81;31.97;99850.34;4487597;32;20106;-79
2022/01/24 11:27:37;;;;;;;14.83;5.67;;;;;;;7.00;31.25;99857.53;4487904;32;20080;-79
2022/01/24 11:30:14;;;;;;;15.65;5.25;;;;;;;4.48;34.68;99856.97;4487718;32;20122;-79
2022/01/24 11:32:58;;;;;;;12.65;4.93;;;;;;;6.82;31.57;99855.81;4487819;31;20109;-79
2022/01/24 11:35:38;;;;;;;15.23;5.40;;;;;;;8.13;28.43;99847.91;4487827;32;20101;-79
2022/01/24 11:38:44;;;;;;;13.82;5.32;;;;;;;5.87;32.11;99844.41;4487452;32;20582;-78
2022/01/24 11:41:32;;;;;;;14.02;5.95;;;;;;;4.34;35.35;99844.03;4487382;32;20077;-79
2022/01/24 11:44:22;;;;;;;;;;;;;;;6.60;32.10;99845.53;4492183;31;20148;-79
2022/01/24 11:46:55;;;;;;;12.73;5.45;;;;;;;8.08;30.05;99839.34;4488225;32;20043;-79
2022/01/24 11:49:44;;;;;;;14.93;5.43;;;;;;;8.09;29.11;99839.38;4487921;32;20137;-79
2022/01/24 11:52:19;;;;;;;15.57;6.07;;;;;;;7.46;29.11;99837.84;4486685;32;20092;-80
2022/01/24 11:55:35;;;;;;;14.35;6.03;;;;;;;8.58;28.01;99843.41;4487887;32;20095;-80
2022/01/24 11:57:49;;;;;;;12.60;5.03;;;;;;;9.56;27.64;99839.19;4476390;32;20161;-79
2022/01/24 12:00:20;;;;;;;13.48;5.68;;;;;;;10.51;26.38;99834.63;4487268;32;20106;-80
2022/01/24 12:02:52;;;;;;;14.02;5.37;;;;;;;10.81;24.97;99835.91;4487682;31;20100;-79
2022/01/24 12:05:25;;;;;;;14.07;5.90;;;;;;;9.69;25.81;99826.19;4473264;32;20108;-79
2022/01/24 12:08:05;;;;;;;50.35;15.30;;;;;;;9.28;27.39;99840.31;4487692;32;20111;-79
2022/01/24 12:10:55;;;;;;;32.03;11.12;;;;;;;9.98;25.94;99838.72;4487486;32;20096;-79
2022/01/24 12:13:28;;;;;;;15.38;5.75;;;;;;;11.60;23.77;99824.25;4487112;31;20081;-77
2022/01/24 12:16:15;;;;;;;18.02;6.78;;;;;;;11.16;24.28;99831.03;4474035;32;20160;-78
2022/01/24 12:18:45;;;;;;;13.68;5.37;;;;;;;12.20;23.47;99825.66;4487898;32;20100;-77
2022/01/24 12:21:20;;;;;;;15.70;6.65;;;;;;;11.41;24.22;99823.72;4487002;32;20080;-77
2022/01/24 12:23:49;;;;;;;17.10;6.35;;;;;;;9.30;26.22;99823.13;4487563;31;20106;-78
2022/01/24 12:26:45;;;;;;;15.90;6.00;;;;;;;11.01;25.06;99816.66;4487084;32;20093;-78
2022/01/24 12:29:18;;;;;;;14.82;6.15;;;;;;;10.89;25.44;99808.25;4473404;32;20113;-77
2022/01/24 12:31:49;;;;;;;14.35;6.18;;;;;;;12.01;24.38;99812.25;4487450;32;20115;-77
2022/01/24 12:34:31;;;;;;;14.73;6.12;;;;;;;11.75;24.10;99798.09;4472945;32;20119;-77
2022/01/24 12:37:10;;;;;;;14.77;5.55;;;;;;;10.14;25.72;99801.56;4487275;32;20089;-77
2022/01/24 12:39:46;;;;;;;15.05;6.07;;;;;;;11.96;23.75;99808.94;4487020;32;20104;-78
2022/01/24 12:42:27;;;;;;;15.57;6.90;;;;;;;11.83;23.40;99808.31;4486643;32;20092;-77
2022/01/24 12:47:40;;;;;;;20.55;7.85;;;;;;;13.16;21.99;99803.56;4487130;32;20096;-77
2022/01/24 12:50:10;;;;;;;18.90;7.93;;;;;;;13.43;21.35;99799.47;4472972;32;20104;-77
2022/01/24 12:52:39;;;;;;;23.38;8.50;;;;;;;12.99;22.19;99800.56;4487288;31;20158;-77
2022/01/24 12:55:07;;;;;;;36.83;14.48;;;;;;;12.93;22.08;99793.78;4486782;32;20506;-77
2022/01/24 12:57:40;;;;;;;67.35;24.50;;;;;;;12.46;22.99;99797.50;4487167;32;20104;-77
2022/01/24 13:00:13;;;;;;;21.85;9.88;;;;;;;12.00;23.75;99802.78;4487483;32;20112;-77
2022/01/24 13:02:41;;;;;;;17.25;6.55;;;;;;;9.87;26.22;99800.19;4486470;31;20098;-78
2022/01/24 13:05:11;;;;;;;16.17;5.57;;;;;;;10.72;25.14;99796.44;4487300;32;20149;-78
2022/01/24 13:07:40;;;;;;;18.00;7.57;;;;;;;11.20;24.62;99798.28;4487103;32;20096;-78
2022/01/24 13:10:13;;;;;;;15.60;6.20;;;;;;;10.43;26.09;99794.31;4486426;32;20141;-78
2022/01/24 13:12:41;;;;;;;15.93;5.90;;;;;;;9.83;26.44;99788.22;4465010;32;261553;-78
2022/01/24 13:15:23;;;;;;;16.45;6.78;;;;;;;9.49;26.72;99798.06;4483134;32;20513;-78
2022/01/24 13:23:24;;;;;;;126.47;50.45;;;;;;;10.56;25.25;99799.31;4486308;32;20106;-80
2022/01/24 13:25:52;;;;;;;77.65;30.17;;;;;;;10.57;25.78;99808.75;4486733;32;20212;-80
2022/01/24 13:28:20;;;;;;;26.48;7.65;;;;;;;9.82;26.11;99801.97;4485266;32;20115;-80
2022/01/24 13:31:03;;;;;;;12.52;5.18;;;;;;;8.66;28.45;99810.78;4483521;32;20588;-80
2022/01/24 13:33:32;;;;;;;15.30;6.28;;;;;;;10.15;25.69;99808.44;4485850;32;20445;-80
2022/01/24 13:36:05;;;;;;;15.77;7.00;;;;;;;8.65;28.08;99804.78;4488835;32;20084;-78
2022/01/24 13:38:35;;;;;;;19.73;8.45;;;;;;;9.09;27.56;99807.88;4486928;32;20107;-79
2022/01/24 13:41:09;;;;;;;19.08;7.03;;;;;;;9.55;26.86;99808.28;4487673;32;20108;-79
2022/01/24 13:43:41;;;;;;;16.33;7.45;;;;;;;9.15;27.12;99807.84;4487016;32;20145;-79
2022/01/24 13:46:26;;;;;;;17.27;6.97;;;;;;;10.23;25.93;99800.63;4471908;32;20084;-79
2022/01/24 13:48:57;;;;;;;16.27;7.32;;;;;;;10.14;25.87;99799.84;4471436;32;20791;-79
2022/01/24 13:51:38;;;;;;;18.83;7.12;;;;;;;8.90;27.24;99807.16;4485946;32;20101;-79
2022/01/24 13:54:16;;;;;;;17.10;7.55;;;;;;;9.48;26.65;99807.50;4486680;32;20140;-79